Veracruz, Mexico

10:35 AM CDT on July 03, 2015 (GMT -0500)
Fracc. Reforma | | Change Station
CLOSE
Current Station
Personal Weather Station
Location: Boca Del Río, VERACRUZ
Elevation: 49 ft
Nearby Weather Stations

Elev 49 ft 19.16 °N, 96.12 °W | Updated 23 seconds ago

Overcast
Overcast
83.3 °F
Feels Like 88 °F
N
3.4
Wind Variable Wind from NW
Gusts 4.9 mph

Today
High -- | Low -- °F
--% Chance of Precip.
Yesterday
High -- | Low -- °F
Precip. -- in
6:50 AM 8:06 PM
Full, 97% visible
Pressure 29.94 in
Visibility 5.0 miles
Clouds Mostly Cloudy 1500 ft
Mostly Cloudy 7000 ft
Overcast 20000 ft
Heat Index 88 °F
Dew Point 70 °F
Humidity 65%
Rainfall 0.71 in
Snow Depth Not available.
UV 4.0 out of 12
Pollen Not available.
Air Quality Not available.
Flu Activity Not available.
SPECI MMVR 031510Z 26004KT 5SM BKN015 BKN070 OVC200 26/23 A2994 RMK 8/477 HZY DSNT TCU 1ST QUAD

More Conditions Fewer Conditions

Pressure 29.94 in
Visibility 5.0 miles
Clouds Mostly Cloudy 1500 ft
Mostly Cloudy 7000 ft
Overcast 20000 ft
Heat Index 88 °F
Dew Point 70 °F
Humidity 65%
Rainfall 0.71 in
Snow Depth Not available.
UV 4.0 out of 12
Pollen Not available.
Air Quality Not available.
Flu Activity Not available.
SPECI MMVR 031510Z 26004KT 5SM BKN015 BKN070 OVC200 26/23 A2994 RMK 8/477 HZY DSNT TCU 1ST QUAD

More Conditions Fewer Conditions

10-Day Weather Forecast

×

Almanac

Astronomy

Jul. 03, 2015 Rise Set
Actual Time
Civil Twilight
Nautical Twilight
Astronomical Twilight
Moon
Length of Visible Light
Length of Day
Tomorrow will be .
, % of the Moon is Illuminated

Today's Extremes

Country Highs Country Lows

Community

WunderPhotos

Upload Photos

1,834,679 photos uploaded!

WunderBlogs® & News

Nearby

Air Quality

  Air Quality AQ Index Pollutant
Not available.

Snow Depth

Station Depth Elevation

Earthquake Activity

City Distance Mag. Time & Date
Minimum magnitude displayed is 2.5.

Coastal Water Temperatures

Place Temperature

Stations

Nearby Weather Stations

Station Location Temp. Windchill Dew Point Humidity Wind Precip. Elev Updated Type